sensor_id;sensor_type;location;lat;lon;timestamp;temperature;humidity
67131;HTU21D;54051;53.464;49.532;2022-07-04T00:00:57;19.08;68.07
67131;HTU21D;54051;53.464;49.532;2022-07-04T00:03:23;19.02;68.29
67131;HTU21D;54051;53.464;49.532;2022-07-04T00:05:49;18.96;68.39
67131;HTU21D;54051;53.464;49.532;2022-07-04T00:08:15;18.94;68.63
67131;HTU21D;54051;53.464;49.532;2022-07-04T00:10:41;18.92;68.65
67131;HTU21D;54051;53.464;49.532;2022-07-04T00:13:07;18.89;68.73
67131;HTU21D;54051;53.464;49.532;2022-07-04T00:15:33;18.91;69.00
67131;HTU21D;54051;53.464;49.532;2022-07-04T00:17:59;18.88;69.17
67131;HTU21D;54051;53.464;49.532;2022-07-04T00:20:25;18.92;69.17
67131;HTU21D;54051;53.464;49.532;2022-07-04T00:22:51;18.93;69.24
67131;HTU21D;54051;53.464;49.532;2022-07-04T00:25:17;18.94;69.31
67131;HTU21D;54051;53.464;49.532;2022-07-04T00:27:43;18.97;69.19
67131;HTU21D;54051;53.464;49.532;2022-07-04T00:30:09;18.97;69.13
67131;HTU21D;54051;53.464;49.532;2022-07-04T00:32:35;18.97;69.12
67131;HTU21D;54051;53.464;49.532;2022-07-04T00:35:01;18.93;69.39
67131;HTU21D;54051;53.464;49.532;2022-07-04T00:37:27;18.89;69.29
67131;HTU21D;54051;53.464;49.532;2022-07-04T00:39:53;18.89;69.53
67131;HTU21D;54051;53.464;49.532;2022-07-04T00:42:21;18.87;69.74
67131;HTU21D;54051;53.464;49.532;2022-07-04T00:44:47;18.85;69.61
67131;HTU21D;54051;53.464;49.532;2022-07-04T00:47:13;18.84;69.81
67131;HTU21D;54051;53.464;49.532;2022-07-04T00:49:39;18.85;69.69
67131;HTU21D;54051;53.464;49.532;2022-07-04T00:52:06;18.81;69.52
67131;HTU21D;54051;53.464;49.532;2022-07-04T00:54:33;18.80;69.69
67131;HTU21D;54051;53.464;49.532;2022-07-04T00:57:00;18.79;69.68
67131;HTU21D;54051;53.464;49.532;2022-07-04T00:59:26;18.82;69.61
67131;HTU21D;54051;53.464;49.532;2022-07-04T01:01:52;18.87;69.55
67131;HTU21D;54051;53.464;49.532;2022-07-04T01:04:18;18.88;69.28
67131;HTU21D;54051;53.464;49.532;2022-07-04T01:06:45;19.03;68.75
67131;HTU21D;54051;53.464;49.532;2022-07-04T01:09:12;19.05;68.74
67131;HTU21D;54051;53.464;49.532;2022-07-04T01:11:37;19.06;68.73
67131;HTU21D;54051;53.464;49.532;2022-07-04T01:14:03;19.09;68.63
67131;HTU21D;54051;53.464;49.532;2022-07-04T01:16:32;19.12;68.51
67131;HTU21D;54051;53.464;49.532;2022-07-04T01:18:59;19.14;68.52
67131;HTU21D;54051;53.464;49.532;2022-07-04T01:21:25;19.12;68.26
67131;HTU21D;54051;53.464;49.532;2022-07-04T01:23:56;19.18;68.23
67131;HTU21D;54051;53.464;49.532;2022-07-04T01:26:22;19.21;68.12
67131;HTU21D;54051;53.464;49.532;2022-07-04T01:28:48;19.21;68.17
67131;HTU21D;54051;53.464;49.532;2022-07-04T01:31:14;19.38;67.53
67131;HTU21D;54051;53.464;49.532;2022-07-04T01:33:40;19.60;66.60
67131;HTU21D;54051;53.464;49.532;2022-07-04T01:36:06;19.63;66.59
67131;HTU21D;54051;53.464;49.532;2022-07-04T01:38:32;19.57;66.61
67131;HTU21D;54051;53.464;49.532;2022-07-04T01:40:58;19.57;66.75
67131;HTU21D;54051;53.464;49.532;2022-07-04T01:43:24;19.50;66.94
67131;HTU21D;54051;53.464;49.532;2022-07-04T01:45:50;19.48;67.21
67131;HTU21D;54051;53.464;49.532;2022-07-04T01:48:16;19.50;67.00
67131;HTU21D;54051;53.464;49.532;2022-07-04T01:50:42;19.53;66.83
67131;HTU21D;54051;53.464;49.532;2022-07-04T01:53:08;19.56;66.73
67131;HTU21D;54051;53.464;49.532;2022-07-04T01:55:34;19.59;66.59
67131;HTU21D;54051;53.464;49.532;2022-07-04T01:58:01;19.55;66.89
67131;HTU21D;54051;53.464;49.532;2022-07-04T02:00:27;19.84;66.28
67131;HTU21D;54051;53.464;49.532;2022-07-04T02:03:12;22.83;55.71
67131;HTU21D;54051;53.464;49.532;2022-07-04T02:05:38;23.77;52.33
67131;HTU21D;54051;53.464;49.532;2022-07-04T02:08:05;23.79;51.91
67131;HTU21D;54051;53.464;49.532;2022-07-04T02:10:32;22.64;55.45
67131;HTU21D;54051;53.464;49.532;2022-07-04T02:12:58;21.82;58.13
67131;HTU21D;54051;53.464;49.532;2022-07-04T02:15:37;21.19;60.21
67131;HTU21D;54051;53.464;49.532;2022-07-04T02:18:05;21.09;60.59
67131;HTU21D;54051;53.464;49.532;2022-07-04T02:20:32;21.20;60.39
67131;HTU21D;54051;53.464;49.532;2022-07-04T02:22:58;21.25;60.13
67131;HTU21D;54051;53.464;49.532;2022-07-04T02:25:25;23.71;52.24
67131;HTU21D;54051;53.464;49.532;2022-07-04T02:27:51;23.74;51.56
67131;HTU21D;54051;53.464;49.532;2022-07-04T02:30:17;24.11;50.52
67131;HTU21D;54051;53.464;49.532;2022-07-04T02:32:43;25.16;46.86
67131;HTU21D;54051;53.464;49.532;2022-07-04T02:35:10;24.16;49.71
67131;HTU21D;54051;53.464;49.532;2022-07-04T02:37:36;23.25;51.98
67131;HTU21D;54051;53.464;49.532;2022-07-04T02:40:03;22.44;54.49
67131;HTU21D;54051;53.464;49.532;2022-07-04T02:42:31;21.89;56.28
67131;HTU21D;54051;53.464;49.532;2022-07-04T02:44:57;21.50;57.71
67131;HTU21D;54051;53.464;49.532;2022-07-04T02:47:23;21.50;57.36
67131;HTU21D;54051;53.464;49.532;2022-07-04T02:49:49;21.18;58.58
67131;HTU21D;54051;53.464;49.532;2022-07-04T02:52:15;20.76;60.18
67131;HTU21D;54051;53.464;49.532;2022-07-04T02:54:43;20.46;61.55
67131;HTU21D;54051;53.464;49.532;2022-07-04T02:57:10;20.33;62.24
67131;HTU21D;54051;53.464;49.532;2022-07-04T02:59:36;20.13;63.05
67131;HTU21D;54051;53.464;49.532;2022-07-04T03:02:03;19.92;63.80
67131;HTU21D;54051;53.464;49.532;2022-07-04T03:04:29;19.74;64.60
67131;HTU21D;54051;53.464;49.532;2022-07-04T03:06:55;19.67;65.11
67131;HTU21D;54051;53.464;49.532;2022-07-04T03:09:21;19.55;65.21
67131;HTU21D;54051;53.464;49.532;2022-07-04T03:11:47;19.46;65.19
67131;HTU21D;54051;53.464;49.532;2022-07-04T03:14:14;19.48;65.12
67131;HTU21D;54051;53.464;49.532;2022-07-04T03:16:39;19.75;63.87
67131;HTU21D;54051;53.464;49.532;2022-07-04T03:19:05;19.99;63.10
67131;HTU21D;54051;53.464;49.532;2022-07-04T03:21:31;20.17;62.09
67131;HTU21D;54051;53.464;49.532;2022-07-04T03:23:57;20.15;62.36
67131;HTU21D;54051;53.464;49.532;2022-07-04T03:26:31;20.37;61.63
67131;HTU21D;54051;53.464;49.532;2022-07-04T03:28:59;20.54;60.91
67131;HTU21D;54051;53.464;49.532;2022-07-04T03:31:26;21.19;59.16
67131;HTU21D;54051;53.464;49.532;2022-07-04T03:33:53;21.99;56.10
67131;HTU21D;54051;53.464;49.532;2022-07-04T03:36:19;22.85;53.75
67131;HTU21D;54051;53.464;49.532;2022-07-04T03:38:45;24.59;48.45
67131;HTU21D;54051;53.464;49.532;2022-07-04T03:41:11;28.49;38.89
67131;HTU21D;54051;53.464;49.532;2022-07-04T03:43:37;31.43;31.71
67131;HTU21D;54051;53.464;49.532;2022-07-04T03:46:04;33.15;28.74
67131;HTU21D;54051;53.464;49.532;2022-07-04T03:48:30;33.20;28.26
67131;HTU21D;54051;53.464;49.532;2022-07-04T03:50:56;32.43;29.77
67131;HTU21D;54051;53.464;49.532;2022-07-04T03:53:23;32.62;29.35
67131;HTU21D;54051;53.464;49.532;2022-07-04T03:55:49;29.96;34.49
67131;HTU21D;54051;53.464;49.532;2022-07-04T03:58:15;29.62;35.56
67131;HTU21D;54051;53.464;49.532;2022-07-04T04:00:41;28.64;37.39
67131;HTU21D;54051;53.464;49.532;2022-07-04T04:03:10;28.11;38.81
67131;HTU21D;54051;53.464;49.532;2022-07-04T04:05:55;32.44;29.94
67131;HTU21D;54051;53.464;49.532;2022-07-04T04:08:21;32.20;29.96
67131;HTU21D;54051;53.464;49.532;2022-07-04T04:10:49;33.99;26.31
67131;HTU21D;54051;53.464;49.532;2022-07-04T04:13:14;34.34;25.95
67131;HTU21D;54051;53.464;49.532;2022-07-04T04:15:41;34.57;25.54
67131;HTU21D;54051;53.464;49.532;2022-07-04T04:18:07;36.19;23.24
67131;HTU21D;54051;53.464;49.532;2022-07-04T04:20:34;37.93;20.58
67131;HTU21D;54051;53.464;49.532;2022-07-04T04:23:00;37.89;20.25
67131;HTU21D;54051;53.464;49.532;2022-07-04T04:25:26;33.23;27.79
67131;HTU21D;54051;53.464;49.532;2022-07-04T04:27:51;33.71;27.23
67131;HTU21D;54051;53.464;49.532;2022-07-04T04:30:17;36.28;22.61
67131;HTU21D;54051;53.464;49.532;2022-07-04T04:32:43;36.03;23.17
67131;HTU21D;54051;53.464;49.532;2022-07-04T04:35:09;33.45;26.89
67131;HTU21D;54051;53.464;49.532;2022-07-04T04:37:35;32.62;28.39
67131;HTU21D;54051;53.464;49.532;2022-07-04T04:40:01;31.13;31.76
67131;HTU21D;54051;53.464;49.532;2022-07-04T04:42:27;32.56;28.58
67131;HTU21D;54051;53.464;49.532;2022-07-04T04:44:53;29.12;35.28
67131;HTU21D;54051;53.464;49.532;2022-07-04T04:47:19;26.53;41.45
67131;HTU21D;54051;53.464;49.532;2022-07-04T04:49:45;25.09;45.44
67131;HTU21D;54051;53.464;49.532;2022-07-04T04:52:11;27.42;40.54
67131;HTU21D;54051;53.464;49.532;2022-07-04T04:54:37;32.85;28.57
67131;HTU21D;54051;53.464;49.532;2022-07-04T04:57:04;36.23;22.85
67131;HTU21D;54051;53.464;49.532;2022-07-04T04:59:30;33.42;27.52
67131;HTU21D;54051;53.464;49.532;2022-07-04T05:01:57;31.13;31.06
67131;HTU21D;54051;53.464;49.532;2022-07-04T05:04:23;27.78;38.17
67131;HTU21D;54051;53.464;49.532;2022-07-04T05:06:50;25.65;43.28
67131;HTU21D;54051;53.464;49.532;2022-07-04T05:09:16;25.78;44.28
67131;HTU21D;54051;53.464;49.532;2022-07-04T05:11:42;31.42;31.09
67131;HTU21D;54051;53.464;49.532;2022-07-04T05:14:08;32.23;29.16
67131;HTU21D;54051;53.464;49.532;2022-07-04T05:16:34;32.85;27.56
67131;HTU21D;54051;53.464;49.532;2022-07-04T05:19:00;31.35;30.43
67131;HTU21D;54051;53.464;49.532;2022-07-04T05:21:26;30.93;32.38
67131;HTU21D;54051;53.464;49.532;2022-07-04T05:23:55;32.24;29.00
67131;HTU21D;54051;53.464;49.532;2022-07-04T05:26:22;29.78;33.32
67131;HTU21D;54051;53.464;49.532;2022-07-04T05:28:48;27.20;39.25
67131;HTU21D;54051;53.464;49.532;2022-07-04T05:31:14;25.54;43.37
67131;HTU21D;54051;53.464;49.532;2022-07-04T05:33:40;24.77;45.62
67131;HTU21D;54051;53.464;49.532;2022-07-04T05:36:06;26.11;42.70
67131;HTU21D;54051;53.464;49.532;2022-07-04T05:38:32;32.05;29.99
67131;HTU21D;54051;53.464;49.532;2022-07-04T05:40:58;34.77;24.58
67131;HTU21D;54051;53.464;49.532;2022-07-04T05:43:24;31.42;29.38
67131;HTU21D;54051;53.464;49.532;2022-07-04T05:45:53;29.42;32.96
67131;HTU21D;54051;53.464;49.532;2022-07-04T05:48:19;28.74;34.13
67131;HTU21D;54051;53.464;49.532;2022-07-04T05:50:45;28.11;36.16
67131;HTU21D;54051;53.464;49.532;2022-07-04T05:53:11;29.32;33.77
67131;HTU21D;54051;53.464;49.532;2022-07-04T05:55:37;32.66;27.60
67131;HTU21D;54051;53.464;49.532;2022-07-04T05:58:03;35.63;22.46
67131;HTU21D;54051;53.464;49.532;2022-07-04T06:00:29;36.34;21.47
67131;HTU21D;54051;53.464;49.532;2022-07-04T06:02:55;32.42;27.53
67131;HTU21D;54051;53.464;49.532;2022-07-04T06:05:21;29.95;32.04
67131;HTU21D;54051;53.464;49.532;2022-07-04T06:07:47;28.03;36.24
67131;HTU21D;54051;53.464;49.532;2022-07-04T06:10:14;27.02;39.20
67131;HTU21D;54051;53.464;49.532;2022-07-04T06:12:40;26.46;40.42
67131;HTU21D;54051;53.464;49.532;2022-07-04T06:15:06;25.92;41.55
67131;HTU21D;54051;53.464;49.532;2022-07-04T06:17:33;26.36;39.80
67131;HTU21D;54051;53.464;49.532;2022-07-04T06:19:59;27.72;37.03
67131;HTU21D;54051;53.464;49.532;2022-07-04T06:22:24;26.57;39.23
67131;HTU21D;54051;53.464;49.532;2022-07-04T06:24:51;25.29;43.03
67131;HTU21D;54051;53.464;49.532;2022-07-04T06:27:17;25.12;43.77
67131;HTU21D;54051;53.464;49.532;2022-07-04T06:29:44;24.99;44.31
67131;HTU21D;54051;53.464;49.532;2022-07-04T06:32:09;24.85;44.61
67131;HTU21D;54051;53.464;49.532;2022-07-04T06:34:36;24.46;45.94
67131;HTU21D;54051;53.464;49.532;2022-07-04T06:37:20;24.41;46.25
67131;HTU21D;54051;53.464;49.532;2022-07-04T06:39:46;24.35;45.90
67131;HTU21D;54051;53.464;49.532;2022-07-04T06:42:12;24.06;43.92
67131;HTU21D;54051;53.464;49.532;2022-07-04T06:44:38;24.04;44.41
67131;HTU21D;54051;53.464;49.532;2022-07-04T06:47:04;24.57;43.03
67131;HTU21D;54051;53.464;49.532;2022-07-04T06:49:30;28.71;34.13
67131;HTU21D;54051;53.464;49.532;2022-07-04T06:51:56;32.24;26.38
67131;HTU21D;54051;53.464;49.532;2022-07-04T06:54:22;33.78;23.37
67131;HTU21D;54051;53.464;49.532;2022-07-04T06:56:48;35.52;20.26
67131;HTU21D;54051;53.464;49.532;2022-07-04T06:59:14;36.69;19.16
67131;HTU21D;54051;53.464;49.532;2022-07-04T07:01:40;38.36;16.89
67131;HTU21D;54051;53.464;49.532;2022-07-04T07:04:06;38.98;15.80
67131;HTU21D;54051;53.464;49.532;2022-07-04T07:06:31;39.22;16.43
67131;HTU21D;54051;53.464;49.532;2022-07-04T07:08:57;38.76;16.58
67131;HTU21D;54051;53.464;49.532;2022-07-04T07:11:25;36.98;18.98
67131;HTU21D;54051;53.464;49.532;2022-07-04T07:13:52;32.48;24.55
67131;HTU21D;54051;53.464;49.532;2022-07-04T07:16:21;29.36;29.96
67131;HTU21D;54051;53.464;49.532;2022-07-04T07:18:48;27.15;33.73
67131;HTU21D;54051;53.464;49.532;2022-07-04T07:21:15;26.11;35.33
67131;HTU21D;54051;53.464;49.532;2022-07-04T07:23:41;25.65;36.66
67131;HTU21D;54051;53.464;49.532;2022-07-04T07:26:07;25.32;37.70
67131;HTU21D;54051;53.464;49.532;2022-07-04T07:28:34;28.83;31.29
67131;HTU21D;54051;53.464;49.532;2022-07-04T07:31:00;29.48;29.15
67131;HTU21D;54051;53.464;49.532;2022-07-04T07:33:26;27.23;32.26
67131;HTU21D;54051;53.464;49.532;2022-07-04T07:35:52;26.45;34.72
67131;HTU21D;54051;53.464;49.532;2022-07-04T07:38:18;27.87;31.19
67131;HTU21D;54051;53.464;49.532;2022-07-04T07:40:44;28.63;29.71
67131;HTU21D;54051;53.464;49.532;2022-07-04T07:43:10;30.87;25.83
67131;HTU21D;54051;53.464;49.532;2022-07-04T07:45:36;34.12;21.09
67131;HTU21D;54051;53.464;49.532;2022-07-04T07:48:02;35.11;18.31
67131;HTU21D;54051;53.464;49.532;2022-07-04T07:50:29;35.19;18.16
67131;HTU21D;54051;53.464;49.532;2022-07-04T07:52:55;36.28;16.43
67131;HTU21D;54051;53.464;49.532;2022-07-04T07:55:21;37.27;15.03
67131;HTU21D;54051;53.464;49.532;2022-07-04T07:57:47;37.03;14.90
67131;HTU21D;54051;53.464;49.532;2022-07-04T08:00:13;36.06;15.59
67131;HTU21D;54051;53.464;49.532;2022-07-04T08:02:39;35.45;16.77
67131;HTU21D;54051;53.464;49.532;2022-07-04T08:05:23;33.12;19.12
67131;HTU21D;54051;53.464;49.532;2022-07-04T08:07:49;31.76;21.38
67131;HTU21D;54051;53.464;49.532;2022-07-04T08:10:15;30.54;20.86
67131;HTU21D;54051;53.464;49.532;2022-07-04T08:21:15;28.24;25.93
67131;HTU21D;54051;53.464;49.532;2022-07-04T08:26:16;27.75;28.32
67131;HTU21D;54051;53.464;49.532;2022-07-04T08:28:42;27.86;27.21
67131;HTU21D;54051;53.464;49.532;2022-07-04T08:31:09;27.70;27.38
67131;HTU21D;54051;53.464;49.532;2022-07-04T08:33:35;27.39;27.67
67131;HTU21D;54051;53.464;49.532;2022-07-04T08:36:01;27.21;28.30
67131;HTU21D;54051;53.464;49.532;2022-07-04T08:38:27;27.14;27.81
67131;HTU21D;54051;53.464;49.532;2022-07-04T08:40:58;26.80;27.94
67131;HTU21D;54051;53.464;49.532;2022-07-04T08:43:25;26.56;28.56
67131;HTU21D;54051;53.464;49.532;2022-07-04T08:45:54;26.46;27.55
67131;HTU21D;54051;53.464;49.532;2022-07-04T08:48:24;26.28;28.03
67131;HTU21D;54051;53.464;49.532;2022-07-04T08:50:55;26.31;27.89
67131;HTU21D;54051;53.464;49.532;2022-07-04T08:53:27;26.18;27.23
67131;HTU21D;54051;53.464;49.532;2022-07-04T08:55:55;25.84;28.78
67131;HTU21D;54051;53.464;49.532;2022-07-04T08:58:39;25.77;29.14
67131;HTU21D;54051;53.464;49.532;2022-07-04T09:01:07;25.40;28.91
67131;HTU21D;54051;53.464;49.532;2022-07-04T09:03:34;25.17;30.82
67131;HTU21D;54051;53.464;49.532;2022-07-04T09:06:01;25.18;30.05
67131;HTU21D;54051;53.464;49.532;2022-07-04T09:08:27;24.95;30.05
67131;HTU21D;54051;53.464;49.532;2022-07-04T09:10:53;24.73;31.23
67131;HTU21D;54051;53.464;49.532;2022-07-04T09:13:20;24.80;31.10
67131;HTU21D;54051;53.464;49.532;2022-07-04T09:15:48;24.85;31.06
67131;HTU21D;54051;53.464;49.532;2022-07-04T09:18:28;24.70;30.78
67131;HTU21D;54051;53.464;49.532;2022-07-04T09:21:00;24.53;32.28
67131;HTU21D;54051;53.464;49.532;2022-07-04T09:23:31;24.73;31.48
67131;HTU21D;54051;53.464;49.532;2022-07-04T09:28:56;24.65;32.11
67131;HTU21D;54051;53.464;49.532;2022-07-04T09:31:27;24.73;31.80
67131;HTU21D;54051;53.464;49.532;2022-07-04T09:33:55;24.80;31.57
67131;HTU21D;54051;53.464;49.532;2022-07-04T09:36:26;24.80;31.48
67131;HTU21D;54051;53.464;49.532;2022-07-04T09:39:09;24.85;31.70
67131;HTU21D;54051;53.464;49.532;2022-07-04T09:44:46;24.61;31.80
67131;HTU21D;54051;53.464;49.532;2022-07-04T09:47:26;24.51;32.50
67131;HTU21D;54051;53.464;49.532;2022-07-04T09:50:12;24.54;32.82
67131;HTU21D;54051;53.464;49.532;2022-07-04T09:52:49;24.68;32.80
67131;HTU21D;54051;53.464;49.532;2022-07-04T09:55:32;24.99;32.12
67131;HTU21D;54051;53.464;49.532;2022-07-04T09:58:01;24.62;31.57
67131;HTU21D;54051;53.464;49.532;2022-07-04T10:00:35;24.55;32.45
67131;HTU21D;54051;53.464;49.532;2022-07-04T10:03:23;24.69;32.89
67131;HTU21D;54051;53.464;49.532;2022-07-04T10:06:11;24.73;32.69
67131;HTU21D;54051;53.464;49.532;2022-07-04T10:08:39;24.73;32.46
67131;HTU21D;54051;53.464;49.532;2022-07-04T10:11:06;24.66;32.77
67131;HTU21D;54051;53.464;49.532;2022-07-04T10:13:33;24.43;31.93
67131;HTU21D;54051;53.464;49.532;2022-07-04T10:15:59;23.96;33.99
67131;HTU21D;54051;53.464;49.532;2022-07-04T10:18:26;24.11;34.53
67131;HTU21D;54051;53.464;49.532;2022-07-04T10:20:54;24.31;34.19
67131;HTU21D;54051;53.464;49.532;2022-07-04T10:23:21;24.47;33.29
67131;HTU21D;54051;53.464;49.532;2022-07-04T10:25:48;24.66;32.84
67131;HTU21D;54051;53.464;49.532;2022-07-04T10:28:16;24.97;32.63
67131;HTU21D;54051;53.464;49.532;2022-07-04T10:30:44;25.03;32.48
67131;HTU21D;54051;53.464;49.532;2022-07-04T10:33:11;24.93;32.43
67131;HTU21D;54051;53.464;49.532;2022-07-04T10:38:30;25.31;32.47
67131;HTU21D;54051;53.464;49.532;2022-07-04T10:41:07;25.17;31.46
67131;HTU21D;54051;53.464;49.532;2022-07-04T10:48:51;24.91;32.10
67131;HTU21D;54051;53.464;49.532;2022-07-04T10:54:11;24.73;32.83
67131;HTU21D;54051;53.464;49.532;2022-07-04T10:59:29;24.30;32.79
67131;HTU21D;54051;53.464;49.532;2022-07-04T11:04:48;24.60;31.64
67131;HTU21D;54051;53.464;49.532;2022-07-04T11:07:15;25.01;30.20
67131;HTU21D;54051;53.464;49.532;2022-07-04T11:09:42;24.99;31.04
67131;HTU21D;54051;53.464;49.532;2022-07-04T11:12:08;24.76;31.60
67131;HTU21D;54051;53.464;49.532;2022-07-04T11:14:46;24.60;32.10
67131;HTU21D;54051;53.464;49.532;2022-07-04T11:19:40;25.31;30.87
67131;HTU21D;54051;53.464;49.532;2022-07-04T11:22:08;25.14;30.98
67131;HTU21D;54051;53.464;49.532;2022-07-04T11:24:35;24.62;31.19
67131;HTU21D;54051;53.464;49.532;2022-07-04T11:27:02;24.36;32.47
67131;HTU21D;54051;53.464;49.532;2022-07-04T11:29:29;24.64;32.31
67131;HTU21D;54051;53.464;49.532;2022-07-04T11:31:56;24.73;31.09
67131;HTU21D;54051;53.464;49.532;2022-07-04T11:34:23;24.56;30.08
67131;HTU21D;54051;53.464;49.532;2022-07-04T11:36:50;24.44;31.12
67131;HTU21D;54051;53.464;49.532;2022-07-04T11:39:20;24.43;31.10
67131;HTU21D;54051;53.464;49.532;2022-07-04T11:41:49;24.45;30.99
67131;HTU21D;54051;53.464;49.532;2022-07-04T11:44:40;24.79;30.73
67131;HTU21D;54051;53.464;49.532;2022-07-04T11:49:58;24.49;30.89
67131;HTU21D;54051;53.464;49.532;2022-07-04T11:52:26;24.44;31.67
67131;HTU21D;54051;53.464;49.532;2022-07-04T11:54:53;24.40;32.02
67131;HTU21D;54051;53.464;49.532;2022-07-04T11:57:28;24.45;31.52
67131;HTU21D;54051;53.464;49.532;2022-07-04T12:00:00;24.63;31.19
67131;HTU21D;54051;53.464;49.532;2022-07-04T12:02:29;24.63;31.67
67131;HTU21D;54051;53.464;49.532;2022-07-04T12:04:55;24.38;32.25
67131;HTU21D;54051;53.464;49.532;2022-07-04T12:07:25;24.25;30.90
67131;HTU21D;54051;53.464;49.532;2022-07-04T12:09:52;23.97;30.31
67131;HTU21D;54051;53.464;49.532;2022-07-04T12:12:18;23.81;30.89
67131;HTU21D;54051;53.464;49.532;2022-07-04T12:15:20;23.98;30.62
67131;HTU21D;54051;53.464;49.532;2022-07-04T12:17:53;23.94;31.37
67131;HTU21D;54051;53.464;49.532;2022-07-04T12:20:21;23.53;31.44
67131;HTU21D;54051;53.464;49.532;2022-07-04T12:22:53;23.39;32.24
67131;HTU21D;54051;53.464;49.532;2022-07-04T12:25:26;23.64;32.29
67131;HTU21D;54051;53.464;49.532;2022-07-04T12:30:27;23.81;31.62
67131;HTU21D;54051;53.464;49.532;2022-07-04T12:32:59;23.58;32.69
67131;HTU21D;54051;53.464;49.532;2022-07-04T12:35:52;23.51;32.42
67131;HTU21D;54051;53.464;49.532;2022-07-04T12:38:22;23.59;31.96
67131;HTU21D;54051;53.464;49.532;2022-07-04T12:40:56;23.76;31.98
67131;HTU21D;54051;53.464;49.532;2022-07-04T12:43:25;23.86;31.75
67131;HTU21D;54051;53.464;49.532;2022-07-04T12:45:54;23.99;31.71
67131;HTU21D;54051;53.464;49.532;2022-07-04T12:48:28;23.87;31.16
67131;HTU21D;54051;53.464;49.532;2022-07-04T12:50:59;23.67;32.28
67131;HTU21D;54051;53.464;49.532;2022-07-04T12:53:39;23.69;32.60
67131;HTU21D;54051;53.464;49.532;2022-07-04T12:56:06;23.75;32.56
67131;HTU21D;54051;53.464;49.532;2022-07-04T12:58:32;23.90;32.25
67131;HTU21D;54051;53.464;49.532;2022-07-04T13:00:58;23.85;33.05
67131;HTU21D;54051;53.464;49.532;2022-07-04T13:03:24;24.05;32.88
67131;HTU21D;54051;53.464;49.532;2022-07-04T13:05:50;24.44;32.72
67131;HTU21D;54051;53.464;49.532;2022-07-04T13:08:16;24.73;32.39
67131;HTU21D;54051;53.464;49.532;2022-07-04T13:10:42;24.90;32.17
67131;HTU21D;54051;53.464;49.532;2022-07-04T13:13:09;25.13;31.25
67131;HTU21D;54051;53.464;49.532;2022-07-04T13:15:35;25.19;31.97
67131;HTU21D;54051;53.464;49.532;2022-07-04T13:18:01;25.06;33.15
67131;HTU21D;54051;53.464;49.532;2022-07-04T13:20:27;24.73;34.25
67131;HTU21D;54051;53.464;49.532;2022-07-04T13:22:53;24.31;35.53
67131;HTU21D;54051;53.464;49.532;2022-07-04T13:25:19;24.05;36.23
67131;HTU21D;54051;53.464;49.532;2022-07-04T13:27:45;24.05;36.02
67131;HTU21D;54051;53.464;49.532;2022-07-04T13:30:12;24.08;35.92
67131;HTU21D;54051;53.464;49.532;2022-07-04T13:32:38;24.09;36.32
67131;HTU21D;54051;53.464;49.532;2022-07-04T13:35:04;23.73;36.59
67131;HTU21D;54051;53.464;49.532;2022-07-04T13:37:30;23.40;37.56
67131;HTU21D;54051;53.464;49.532;2022-07-04T13:39:56;23.25;38.00
67131;HTU21D;54051;53.464;49.532;2022-07-04T13:42:22;23.28;37.92
67131;HTU21D;54051;53.464;49.532;2022-07-04T13:45:07;23.54;36.92
67131;HTU21D;54051;53.464;49.532;2022-07-04T13:47:34;23.56;36.74
67131;HTU21D;54051;53.464;49.532;2022-07-04T13:50:00;23.57;37.21
67131;HTU21D;54051;53.464;49.532;2022-07-04T13:52:26;23.84;36.25
67131;HTU21D;54051;53.464;49.532;2022-07-04T13:54:52;23.88;35.40
67131;HTU21D;54051;53.464;49.532;2022-07-04T13:57:18;23.69;36.59
67131;HTU21D;54051;53.464;49.532;2022-07-04T13:59:44;23.75;36.40
67131;HTU21D;54051;53.464;49.532;2022-07-04T14:02:10;23.64;36.30
67131;HTU21D;54051;53.464;49.532;2022-07-04T14:04:36;23.40;36.32
67131;HTU21D;54051;53.464;49.532;2022-07-04T14:07:03;23.29;37.05
67131;HTU21D;54051;53.464;49.532;2022-07-04T14:09:29;23.21;38.02
67131;HTU21D;54051;53.464;49.532;2022-07-04T14:11:55;23.17;38.61
67131;HTU21D;54051;53.464;49.532;2022-07-04T14:14:21;23.17;39.00
67131;HTU21D;54051;53.464;49.532;2022-07-04T14:16:47;23.08;39.51
67131;HTU21D;54051;53.464;49.532;2022-07-04T14:19:14;23.03;39.27
67131;HTU21D;54051;53.464;49.532;2022-07-04T14:21:40;22.86;40.02
67131;HTU21D;54051;53.464;49.532;2022-07-04T14:24:06;22.85;40.30
67131;HTU21D;54051;53.464;49.532;2022-07-04T14:26:32;22.85;40.31
67131;HTU21D;54051;53.464;49.532;2022-07-04T14:28:58;22.88;40.17
67131;HTU21D;54051;53.464;49.532;2022-07-04T14:31:24;22.95;40.14
67131;HTU21D;54051;53.464;49.532;2022-07-04T14:33:50;22.98;40.60
67131;HTU21D;54051;53.464;49.532;2022-07-04T14:36:16;23.11;40.65
67131;HTU21D;54051;53.464;49.532;2022-07-04T14:38:42;23.15;41.08
67131;HTU21D;54051;53.464;49.532;2022-07-04T14:41:08;23.21;41.09
67131;HTU21D;54051;53.464;49.532;2022-07-04T14:43:41;22.97;41.30
67131;HTU21D;54051;53.464;49.532;2022-07-04T14:46:08;22.81;41.62
67131;HTU21D;54051;53.464;49.532;2022-07-04T14:48:35;22.84;41.74
67131;HTU21D;54051;53.464;49.532;2022-07-04T14:51:01;22.80;41.42
67131;HTU21D;54051;53.464;49.532;2022-07-04T14:53:27;22.67;41.66
67131;HTU21D;54051;53.464;49.532;2022-07-04T14:55:53;22.51;42.07
67131;HTU21D;54051;53.464;49.532;2022-07-04T14:58:20;22.26;42.87
67131;HTU21D;54051;53.464;49.532;2022-07-04T15:00:46;22.16;43.18
67131;HTU21D;54051;53.464;49.532;2022-07-04T15:03:12;22.10;43.19
67131;HTU21D;54051;53.464;49.532;2022-07-04T15:05:38;22.18;43.25
67131;HTU21D;54051;53.464;49.532;2022-07-04T15:08:04;22.18;43.54
67131;HTU21D;54051;53.464;49.532;2022-07-04T15:10:30;22.35;43.39
67131;HTU21D;54051;53.464;49.532;2022-07-04T15:12:56;22.44;43.61
67131;HTU21D;54051;53.464;49.532;2022-07-04T15:15:22;22.64;43.22
67131;HTU21D;54051;53.464;49.532;2022-07-04T15:17:48;22.81;42.98
67131;HTU21D;54051;53.464;49.532;2022-07-04T15:20:14;22.83;42.61
67131;HTU21D;54051;53.464;49.532;2022-07-04T15:22:58;22.85;42.96
67131;HTU21D;54051;53.464;49.532;2022-07-04T15:25:43;22.72;43.10
67131;HTU21D;54051;53.464;49.532;2022-07-04T15:28:09;22.56;43.30
67131;HTU21D;54051;53.464;49.532;2022-07-04T15:30:35;22.44;43.89
67131;HTU21D;54051;53.464;49.532;2022-07-04T15:33:01;22.35;44.08
67131;HTU21D;54051;53.464;49.532;2022-07-04T15:35:27;22.37;43.99
67131;HTU21D;54051;53.464;49.532;2022-07-04T15:37:53;22.47;44.00
67131;HTU21D;54051;53.464;49.532;2022-07-04T15:40:19;22.58;43.80
67131;HTU21D;54051;53.464;49.532;2022-07-04T15:42:48;22.64;43.90
67131;HTU21D;54051;53.464;49.532;2022-07-04T15:47:44;22.65;44.01
67131;HTU21D;54051;53.464;49.532;2022-07-04T15:56:00;21.35;54.53